createdAt,value
2023-05-10T00:01:24.831Z,0.85
2023-05-10T00:03:26.803Z,0.95
2023-05-10T00:05:28.625Z,0.77
2023-05-10T00:07:30.300Z,0.70
2023-05-10T00:09:31.822Z,0.70
2023-05-10T00:11:33.572Z,0.70
2023-05-10T00:13:35.357Z,0.73
2023-05-10T00:15:36.906Z,0.70
2023-05-10T00:17:38.465Z,0.90
2023-05-10T00:19:39.963Z,0.60
2023-05-10T00:21:41.599Z,0.70
2023-05-10T00:23:43.183Z,0.60
2023-05-10T00:25:44.721Z,0.55
2023-05-10T00:27:46.246Z,0.60
2023-05-10T00:29:47.817Z,0.52
2023-05-10T00:31:49.351Z,0.47
2023-05-10T00:33:50.956Z,0.52
2023-05-10T00:35:52.487Z,0.50
2023-05-10T00:37:54.017Z,0.30
2023-05-10T00:39:56.060Z,0.25
2023-05-10T00:41:57.951Z,0.17
2023-05-10T00:43:59.629Z,0.20
2023-05-10T00:46:01.771Z,0.10
2023-05-10T00:48:05.099Z,0.10
2023-05-10T00:50:07.481Z,0.10
2023-05-10T00:54:13.285Z,0.28
2023-05-10T00:56:15.611Z,0.20
2023-05-10T00:58:17.683Z,0.10
2023-05-10T01:00:19.616Z,0.10
2023-05-10T01:02:21.268Z,0.10
2023-05-10T01:04:26.377Z,0.17
2023-05-10T01:06:28.928Z,0.20
2023-05-10T01:10:32.772Z,0.20
2023-05-10T01:12:39.845Z,0.20
2023-05-10T01:14:41.892Z,0.10
2023-05-10T01:16:45.520Z,0.20
2023-05-10T01:18:48.914Z,0.10
2023-05-10T01:21:04.900Z,0.20
2023-05-10T01:23:43.396Z,0.10
2023-05-10T01:28:35.398Z,0.20
2023-05-10T01:30:56.412Z,0.20
2023-05-10T01:33:12.530Z,0.20
2023-05-10T01:35:18.849Z,0.10
2023-05-10T01:37:39.708Z,0.30
2023-05-10T01:39:50.997Z,0.10
2023-05-10T01:41:56.937Z,0.20
2023-05-10T01:44:06.965Z,0.20
2023-05-10T01:46:17.399Z,0.25
2023-05-10T01:48:21.684Z,0.20
2023-05-10T01:50:31.261Z,0.20
2023-05-10T01:52:39.546Z,0.30
2023-05-10T01:54:45.578Z,0.28
2023-05-10T01:56:54.096Z,0.28
2023-05-10T02:01:01.858Z,0.40
2023-05-10T02:03:07.854Z,0.30
2023-05-10T02:05:13.160Z,0.20
2023-05-10T02:07:15.674Z,0.10
2023-05-10T02:09:18.895Z,0.10
2023-05-10T02:11:22.108Z,0.10
2023-05-10T02:13:27.211Z,0.20
2023-05-10T02:15:30.755Z,0.20
2023-05-10T02:17:33.648Z,0.20
2023-05-10T02:19:37.549Z,0.20
2023-05-10T02:21:40.422Z,0.20
2023-05-10T02:23:43.791Z,0.25
2023-05-10T02:25:46.885Z,0.20
2023-05-10T02:27:49.877Z,0.30
2023-05-10T02:29:52.691Z,0.32
2023-05-10T02:31:55.947Z,0.50
2023-05-10T02:33:58.888Z,0.40
2023-05-10T02:36:02.930Z,0.40
2023-05-10T02:38:06.069Z,0.47
2023-05-10T02:40:09.468Z,0.40
2023-05-10T02:42:16.726Z,0.35
2023-05-10T02:44:23.730Z,0.40
2023-05-10T02:46:25.694Z,0.63
2023-05-10T02:48:27.399Z,0.50
2023-05-10T02:50:33.269Z,0.40
2023-05-10T02:52:45.254Z,0.43
2023-05-10T02:54:51.590Z,0.32
2023-05-10T02:56:58.665Z,0.40
2023-05-10T02:59:00.266Z,0.55
2023-05-10T03:01:01.896Z,0.40
2023-05-10T03:03:04.044Z,0.50
2023-05-10T03:05:06.070Z,0.38
2023-05-10T03:09:12.005Z,0.50
2023-05-10T03:11:22.688Z,0.60
2023-05-10T03:13:40.623Z,0.75
2023-05-10T03:15:50.096Z,0.70
2023-05-10T03:18:03.917Z,0.60
2023-05-10T03:20:12.549Z,0.80
2023-05-10T03:22:23.509Z,0.70
2023-05-10T03:24:29.129Z,0.80
2023-05-10T03:26:33.785Z,1.00
2023-05-10T03:28:44.677Z,1.00
2023-05-10T03:30:47.217Z,0.80
2023-05-10T03:32:49.017Z,1.00
2023-05-10T03:34:52.540Z,0.82
2023-05-10T03:36:54.634Z,0.80
2023-05-10T03:38:56.266Z,1.00
2023-05-10T03:40:58.219Z,1.02
2023-05-10T03:43:00.406Z,1.10
2023-05-10T03:45:02.014Z,0.90
2023-05-10T03:47:04.004Z,1.00
2023-05-10T03:49:06.455Z,0.80
2023-05-10T03:51:08.128Z,0.90
2023-05-10T03:53:09.830Z,0.70
2023-05-10T03:55:11.997Z,1.77
2023-05-10T03:57:13.908Z,0.80
2023-05-10T03:59:16.261Z,0.88
2023-05-10T04:03:19.379Z,0.60
2023-05-10T04:05:21.246Z,0.85
2023-05-10T04:07:22.887Z,0.90
2023-05-10T04:09:25.002Z,0.82
2023-05-10T04:11:26.804Z,1.00
2023-05-10T04:13:28.549Z,1.30
2023-05-10T04:15:30.044Z,1.00
2023-05-10T04:17:32.506Z,1.00
2023-05-10T04:19:34.777Z,0.90
2023-05-10T04:21:37.563Z,0.98
2023-05-10T04:23:39.586Z,1.00
2023-05-10T04:25:41.806Z,0.95
2023-05-10T04:27:43.630Z,0.98
2023-05-10T04:29:45.502Z,0.95
2023-05-10T04:31:46.986Z,0.90
2023-05-10T04:33:48.532Z,1.20
2023-05-10T04:35:50.057Z,1.02
2023-05-10T04:37:52.597Z,1.20
2023-05-10T04:39:54.778Z,1.13
2023-05-10T04:41:56.539Z,1.05
2023-05-10T04:43:58.078Z,1.40
2023-05-10T04:45:59.767Z,1.30
2023-05-10T04:48:01.844Z,1.15
2023-05-10T04:50:07.275Z,1.25
2023-05-10T04:52:09.321Z,1.00
2023-05-10T04:54:11.294Z,1.00
2023-05-10T04:56:13.136Z,0.93
2023-05-10T04:58:14.868Z,1.23
2023-05-10T05:00:17.233Z,1.00
2023-05-10T05:02:19.154Z,0.98
2023-05-10T05:04:20.692Z,1.10
2023-05-10T05:06:22.302Z,1.20
2023-05-10T05:08:24.846Z,1.10
2023-05-10T05:10:26.340Z,1.00
2023-05-10T05:12:27.811Z,1.05
2023-05-10T05:14:29.601Z,1.17
2023-05-10T05:16:32.623Z,1.15
2023-05-10T05:18:34.390Z,1.20
2023-05-10T05:20:36.150Z,1.10
2023-05-10T05:22:38.305Z,1.40
2023-05-10T05:24:39.828Z,1.50
2023-05-10T05:26:41.519Z,1.52
2023-05-10T05:28:43.036Z,1.38
2023-05-10T05:30:45.355Z,1.50
2023-05-10T05:34:49.923Z,1.50
2023-05-10T05:36:51.430Z,1.60
2023-05-10T05:38:53.076Z,1.77
2023-05-10T05:40:54.876Z,1.67
2023-05-10T05:42:56.353Z,1.52
2023-05-10T05:44:58.383Z,1.52
2023-05-10T05:46:59.969Z,2.00
2023-05-10T05:49:01.457Z,1.63
2023-05-10T05:51:03.429Z,1.90
2023-05-10T05:53:06.999Z,1.73
2023-05-10T05:55:09.097Z,1.80
2023-05-10T05:57:10.983Z,1.75
2023-05-10T05:59:12.724Z,1.80
2023-05-10T06:01:14.420Z,1.88
2023-05-10T06:03:16.529Z,1.60
2023-05-10T06:05:18.633Z,1.85
2023-05-10T06:07:20.257Z,1.70
2023-05-10T06:09:22.148Z,2.03
2023-05-10T06:11:23.867Z,2.00
2023-05-10T06:13:25.549Z,2.20
2023-05-10T06:15:28.103Z,2.60
2023-05-10T06:17:29.737Z,2.45
2023-05-10T06:19:31.979Z,2.00
2023-05-10T06:21:33.531Z,2.22
2023-05-10T06:23:35.292Z,1.90
2023-05-10T06:25:36.837Z,2.38
2023-05-10T06:27:38.365Z,1.80
2023-05-10T06:29:40.253Z,2.33
2023-05-10T06:31:41.930Z,3.00
2023-05-10T06:33:43.736Z,2.45
2023-05-10T06:35:45.483Z,2.10
2023-05-10T06:37:47.703Z,2.08
2023-05-10T06:39:49.723Z,2.00
2023-05-10T06:41:51.441Z,2.20
2023-05-10T06:43:54.857Z,2.33
2023-05-10T06:45:56.762Z,1.58
2023-05-10T06:47:58.367Z,1.92
2023-05-10T06:50:00.176Z,2.13
2023-05-10T06:52:02.126Z,2.20
2023-05-10T06:54:04.300Z,2.63
2023-05-10T06:56:06.094Z,2.00
2023-05-10T06:58:07.791Z,2.10
2023-05-10T07:00:10.701Z,2.17
2023-05-10T07:02:12.552Z,2.40
2023-05-10T07:04:14.717Z,2.42
2023-05-10T07:06:29.480Z,2.22
2023-05-10T07:08:35.370Z,2.67
2023-05-10T07:10:37.179Z,2.13
2023-05-10T07:12:39.448Z,2.47
2023-05-10T07:16:43.060Z,2.58
2023-05-10T07:18:44.856Z,2.45
2023-05-10T07:20:46.496Z,2.30
2023-05-10T07:22:48.033Z,2.33
2023-05-10T07:24:49.874Z,2.20
2023-05-10T07:26:51.404Z,2.25
2023-05-10T07:28:53.043Z,2.03
2023-05-10T07:30:54.680Z,2.60
2023-05-10T07:32:56.402Z,2.38
2023-05-10T07:34:57.997Z,2.15
2023-05-10T07:37:00.026Z,2.00
2023-05-10T07:39:01.782Z,2.10
2023-05-10T07:41:03.526Z,2.30
2023-05-10T07:43:05.043Z,2.13
2023-05-10T07:45:07.370Z,2.33
2023-05-10T07:47:09.166Z,2.50
2023-05-10T07:49:10.970Z,2.08
2023-05-10T07:51:12.918Z,2.53
2023-05-10T07:53:14.517Z,2.30
2023-05-10T07:55:16.986Z,2.30
2023-05-10T07:57:19.258Z,2.50
2023-05-10T07:59:21.015Z,2.53
2023-05-10T08:01:23.552Z,2.38
2023-05-10T08:03:25.754Z,2.00
2023-05-10T08:05:27.513Z,2.47
2023-05-10T08:07:29.125Z,1.90
2023-05-10T08:09:30.637Z,2.03
2023-05-10T08:11:33.716Z,2.00
2023-05-10T08:13:36.535Z,1.92
2023-05-10T08:15:38.120Z,2.15
2023-05-10T08:17:40.289Z,2.03
2023-05-10T08:19:41.914Z,1.85
2023-05-10T08:21:43.484Z,1.90
2023-05-10T08:23:45.251Z,2.10
2023-05-10T08:25:46.936Z,1.85
2023-05-10T08:27:48.455Z,1.80
2023-05-10T08:29:50.701Z,1.63
2023-05-10T08:33:53.958Z,1.70
2023-05-10T08:35:55.537Z,2.03
2023-05-10T08:37:57.047Z,2.28
2023-05-10T08:39:58.675Z,1.92
2023-05-10T08:42:02.494Z,2.10
2023-05-10T08:44:06.297Z,1.70
2023-05-10T08:46:10.024Z,1.90
2023-05-10T08:48:12.963Z,2.17
2023-05-10T08:50:17.171Z,1.80
2023-05-10T08:52:19.555Z,2.00
2023-05-10T08:54:22.681Z,2.05
2023-05-10T08:56:25.066Z,2.85
2023-05-10T09:00:29.524Z,1.88
2023-05-10T09:02:31.483Z,1.63
2023-05-10T09:04:33.980Z,1.48
2023-05-10T09:06:36.254Z,1.92
2023-05-10T09:08:38.389Z,1.95
2023-05-10T09:10:41.169Z,1.95
2023-05-10T09:12:45.200Z,1.85
2023-05-10T09:14:47.387Z,2.05
2023-05-10T09:16:48.973Z,2.13
2023-05-10T09:18:50.831Z,2.10
2023-05-10T09:20:52.790Z,1.83
2023-05-10T09:22:54.369Z,1.83
2023-05-10T09:25:13.336Z,1.98
2023-05-10T09:27:14.932Z,2.10
2023-05-10T09:29:17.850Z,2.00
2023-05-10T09:31:21.258Z,2.10
2023-05-10T09:33:23.233Z,1.90
2023-05-10T09:35:29.700Z,2.10
2023-05-10T09:37:31.621Z,3.00
2023-05-10T09:39:35.353Z,2.20
2023-05-10T09:41:37.861Z,2.25
2023-05-10T09:43:39.432Z,2.20
2023-05-10T09:45:42.222Z,2.03
2023-05-10T09:47:43.926Z,2.08
2023-05-10T09:49:51.013Z,1.95
2023-05-10T09:52:02.384Z,1.83
2023-05-10T09:54:17.828Z,2.17
2023-05-10T09:56:35.039Z,1.90
2023-05-10T09:58:39.085Z,1.90
2023-05-10T10:00:42.628Z,1.73
2023-05-10T10:02:46.039Z,1.92
2023-05-10T10:04:50.847Z,1.83
2023-05-10T10:07:01.363Z,1.70
2023-05-10T10:09:03.017Z,1.63
2023-05-10T10:11:05.176Z,2.05
2023-05-10T10:13:07.265Z,1.95
2023-05-10T10:15:09.973Z,2.00
2023-05-10T10:17:12.857Z,1.85
2023-05-10T10:19:15.704Z,1.70
2023-05-10T10:21:17.838Z,1.85
2023-05-10T10:23:19.478Z,1.40
2023-05-10T10:25:24.995Z,1.88
2023-05-10T10:27:42.329Z,1.58
2023-05-10T10:29:58.960Z,1.40
2023-05-10T10:32:31.354Z,1.20
2023-05-10T10:34:33.318Z,1.73
2023-05-10T10:36:46.646Z,2.10
2023-05-10T10:38:48.115Z,1.58
2023-05-10T10:41:02.457Z,1.85
2023-05-10T10:43:27.060Z,2.00
2023-05-10T10:45:28.689Z,2.15
2023-05-10T10:47:33.878Z,1.88
2023-05-10T10:49:44.767Z,1.30
2023-05-10T10:52:19.244Z,1.60
2023-05-10T10:54:29.319Z,1.20
2023-05-10T10:56:30.999Z,1.65
2023-05-10T10:58:35.299Z,1.30
2023-05-10T11:00:38.821Z,1.30
2023-05-10T11:02:43.407Z,0.93
2023-05-10T11:04:47.770Z,0.77
2023-05-10T11:06:49.436Z,1.00
2023-05-10T11:08:53.637Z,0.80
2023-05-10T11:11:00.831Z,0.77
2023-05-10T11:13:09.405Z,0.82
2023-05-10T11:15:11.027Z,0.90
2023-05-10T11:17:30.377Z,1.20
2023-05-10T11:19:32.312Z,1.10
2023-05-10T11:21:35.111Z,1.00
2023-05-10T11:23:51.552Z,1.10
2023-05-10T11:25:53.059Z,0.90
2023-05-10T11:27:54.568Z,1.27
2023-05-10T11:29:56.367Z,0.82
2023-05-10T11:32:00.143Z,1.00
2023-05-10T11:34:06.191Z,0.90
2023-05-10T11:36:12.088Z,0.98
2023-05-10T11:38:14.385Z,0.80
2023-05-10T11:40:17.353Z,0.60
2023-05-10T11:42:19.250Z,0.60
2023-05-10T11:44:20.976Z,0.68
2023-05-10T11:46:24.895Z,0.70
2023-05-10T11:48:26.466Z,0.57
2023-05-10T11:50:28.268Z,0.45
2023-05-10T11:52:37.594Z,0.65
2023-05-10T11:54:46.227Z,0.43
2023-05-10T11:56:47.788Z,0.50
2023-05-10T11:58:58.338Z,0.40
2023-05-10T12:01:00.905Z,0.50
2023-05-10T12:03:03.340Z,0.68
2023-05-10T12:05:07.096Z,0.40
2023-05-10T12:07:08.906Z,0.50
2023-05-10T12:09:10.712Z,0.50
2023-05-10T12:11:13.722Z,0.57
2023-05-10T12:13:16.480Z,0.50
2023-05-10T12:15:22.214Z,0.60
2023-05-10T12:17:28.508Z,0.52
2023-05-10T12:19:38.073Z,0.43
2023-05-10T12:21:39.980Z,0.60
2023-05-10T12:23:42.457Z,0.70
2023-05-10T12:25:44.499Z,0.50
2023-05-10T12:27:57.144Z,0.63
2023-05-10T12:30:01.188Z,1.00
2023-05-10T12:32:03.752Z,0.95
2023-05-10T12:34:05.462Z,0.90
2023-05-10T12:36:07.769Z,0.68
2023-05-10T12:38:29.872Z,1.30
2023-05-10T12:40:31.890Z,0.82
2023-05-10T12:42:33.983Z,0.63
2023-05-10T12:44:35.809Z,1.13
2023-05-10T12:46:37.615Z,0.90
2023-05-10T12:48:40.898Z,0.98
2023-05-10T12:50:42.608Z,0.98
2023-05-10T12:52:44.198Z,0.85
2023-05-10T12:54:45.830Z,0.98
2023-05-10T12:56:47.342Z,1.13
2023-05-10T12:58:49.183Z,0.80
2023-05-10T13:00:52.656Z,0.80
2023-05-10T13:02:54.941Z,0.73
2023-05-10T13:04:56.571Z,0.70
2023-05-10T13:06:59.892Z,0.65
2023-05-10T13:09:01.585Z,0.77
2023-05-10T13:11:03.817Z,0.60
2023-05-10T13:15:08.573Z,0.60
2023-05-10T13:17:10.203Z,0.60
2023-05-10T13:19:12.665Z,0.50
2023-05-10T13:21:14.483Z,0.70
2023-05-10T13:23:16.139Z,0.68
2023-05-10T13:25:18.166Z,1.00
2023-05-10T13:27:19.821Z,0.75
2023-05-10T13:29:23.402Z,0.50
2023-05-10T13:31:25.011Z,0.75
2023-05-10T13:33:27.573Z,0.50
2023-05-10T13:35:29.121Z,0.60
2023-05-10T13:37:32.182Z,0.50
2023-05-10T13:39:35.682Z,0.60
2023-05-10T13:41:37.955Z,0.77
2023-05-10T13:45:41.132Z,0.80
2023-05-10T13:47:42.624Z,0.63
2023-05-10T13:49:44.347Z,0.80
2023-05-10T13:51:46.071Z,0.52
2023-05-10T13:53:48.094Z,0.57
2023-05-10T13:55:50.000Z,0.60
2023-05-10T13:57:52.083Z,0.77
2023-05-10T13:59:55.878Z,0.65
2023-05-10T14:02:00.963Z,0.70
2023-05-10T14:04:03.235Z,0.75
2023-05-10T14:06:04.876Z,0.90
2023-05-10T14:08:06.723Z,0.60
2023-05-10T14:10:08.623Z,0.57
2023-05-10T14:12:10.539Z,0.70
2023-05-10T14:14:13.547Z,0.82
2023-05-10T14:16:16.149Z,0.80
2023-05-10T14:18:18.312Z,0.90
2023-05-10T14:20:20.076Z,0.82
2023-05-10T14:22:21.915Z,0.95
2023-05-10T14:24:23.866Z,0.73
2023-05-10T14:26:26.309Z,0.90
2023-05-10T14:28:27.967Z,0.80
2023-05-10T14:30:29.617Z,0.77
2023-05-10T14:32:33.234Z,0.80
2023-05-10T14:34:35.146Z,0.80
2023-05-10T14:36:36.987Z,0.80
2023-05-10T14:38:38.550Z,0.80
2023-05-10T14:40:40.434Z,0.88
2023-05-10T14:42:43.455Z,0.73
2023-05-10T14:44:44.985Z,0.68
2023-05-10T14:46:46.498Z,0.70
2023-05-10T14:48:48.151Z,0.60
2023-05-10T14:50:51.180Z,0.70
2023-05-10T14:52:52.760Z,0.70
2023-05-10T14:54:54.853Z,0.50
2023-05-10T14:56:56.412Z,0.65
2023-05-10T14:58:57.999Z,1.05
2023-05-10T15:01:00.569Z,3.30
2023-05-10T15:03:03.572Z,0.50
2023-05-10T15:05:05.772Z,16.83
2023-05-10T15:07:07.715Z,20.40
2023-05-10T15:09:09.843Z,3.05
2023-05-10T15:11:11.406Z,3.03
2023-05-10T15:13:12.973Z,9.50
2023-05-10T15:15:14.846Z,33.80
2023-05-10T15:17:17.150Z,29.80
2023-05-10T15:19:21.260Z,26.55
2023-05-10T15:21:22.792Z,16.63
2023-05-10T15:23:24.384Z,8.68
2023-05-10T15:25:26.143Z,10.18
2023-05-10T15:27:27.788Z,8.75
2023-05-10T15:29:30.545Z,8.48
2023-05-10T15:31:32.088Z,4.07
2023-05-10T15:33:33.704Z,6.97
2023-05-10T15:35:36.702Z,5.18
2023-05-10T15:37:39.132Z,4.28
2023-05-10T15:41:42.818Z,5.95
2023-05-10T15:43:44.547Z,5.57
2023-05-10T15:45:46.396Z,4.15
2023-05-10T15:47:48.924Z,4.03
2023-05-10T15:49:50.689Z,4.50
2023-05-10T15:51:52.211Z,4.10
2023-05-10T15:54:05.954Z,2.40
2023-05-10T15:56:09.162Z,3.13
2023-05-10T15:58:11.567Z,3.35
2023-05-10T16:00:14.227Z,3.35
2023-05-10T16:02:15.985Z,2.95
2023-05-10T16:04:18.306Z,2.13
2023-05-10T16:06:20.061Z,1.63
2023-05-10T16:08:21.692Z,2.10
2023-05-10T16:10:23.397Z,2.10
2023-05-10T16:12:25.005Z,2.03
2023-05-10T16:14:26.720Z,1.60
2023-05-10T16:16:28.328Z,1.80
2023-05-10T16:18:29.950Z,1.63
2023-05-10T16:20:32.993Z,1.30
2023-05-10T16:22:35.468Z,1.30
2023-05-10T16:24:36.979Z,1.60
2023-05-10T16:26:40.843Z,1.20
2023-05-10T16:28:42.846Z,1.20
2023-05-10T16:30:44.486Z,1.40
2023-05-10T16:32:46.105Z,1.30
2023-05-10T16:34:47.979Z,1.05
2023-05-10T16:36:49.919Z,1.13
2023-05-10T16:38:52.156Z,0.77
2023-05-10T16:40:54.228Z,0.60
2023-05-10T16:44:57.357Z,0.80
2023-05-10T16:46:59.186Z,0.68
2023-05-10T16:49:01.377Z,0.70
2023-05-10T16:51:04.468Z,0.90
2023-05-10T16:53:06.593Z,0.68
2023-05-10T16:55:08.626Z,0.82
2023-05-10T16:59:12.153Z,0.90
2023-05-10T17:01:13.795Z,0.65
2023-05-10T17:03:15.927Z,0.70
2023-05-10T17:05:18.109Z,0.98
2023-05-10T17:07:20.099Z,0.73
2023-05-10T17:09:21.931Z,1.15
2023-05-10T17:11:23.500Z,0.73
2023-05-10T17:13:24.984Z,0.60
2023-05-10T17:15:26.794Z,0.80
2023-05-10T17:17:28.682Z,0.90
2023-05-10T17:19:30.636Z,0.88
2023-05-10T17:21:32.388Z,0.68
2023-05-10T17:23:34.340Z,0.90
2023-05-10T17:25:36.620Z,0.70
2023-05-10T17:27:38.363Z,0.73
2023-05-10T17:29:40.032Z,0.90
2023-05-10T17:31:42.247Z,0.90
2023-05-10T17:33:44.077Z,0.63
2023-05-10T17:35:46.723Z,0.80
2023-05-10T17:37:48.764Z,1.00
2023-05-10T17:39:50.604Z,1.05
2023-05-10T17:41:52.217Z,0.63
2023-05-10T17:43:54.014Z,0.90
2023-05-10T17:45:55.587Z,1.08
2023-05-10T17:47:57.401Z,1.02
2023-05-10T17:49:59.217Z,1.23
2023-05-10T17:52:00.788Z,0.80
2023-05-10T17:54:02.568Z,0.90
2023-05-10T17:56:04.315Z,0.80
2023-05-10T17:58:05.914Z,0.90
2023-05-10T18:00:09.101Z,0.90
2023-05-10T18:02:10.677Z,0.95
2023-05-10T18:04:12.193Z,0.90
2023-05-10T18:06:14.109Z,0.75
2023-05-10T18:08:15.936Z,0.90
2023-05-10T18:10:17.425Z,0.88
2023-05-10T18:12:19.211Z,1.00
2023-05-10T18:14:35.895Z,0.90
2023-05-10T18:16:43.055Z,0.70
2023-05-10T18:18:44.943Z,0.90
2023-05-10T18:20:46.786Z,1.10
2023-05-10T18:22:48.364Z,0.90
2023-05-10T18:24:49.917Z,0.98
2023-05-10T18:26:51.986Z,0.80
2023-05-10T18:28:53.448Z,0.90
2023-05-10T18:30:55.217Z,0.90
2023-05-10T18:32:57.943Z,0.77
2023-05-10T18:34:59.593Z,0.77
2023-05-10T18:37:02.362Z,0.77
2023-05-10T18:39:05.504Z,0.93
2023-05-10T18:41:07.656Z,1.00
2023-05-10T18:43:09.292Z,1.20
2023-05-10T18:45:11.570Z,0.90
2023-05-10T18:49:14.818Z,0.70
2023-05-10T18:51:16.637Z,0.80
2023-05-10T18:53:18.397Z,0.77
2023-05-10T18:55:20.167Z,1.00
2023-05-10T18:57:22.101Z,0.85
2023-05-10T18:59:23.707Z,0.90
2023-05-10T19:01:25.377Z,1.02
2023-05-10T19:03:28.512Z,0.93
2023-05-10T19:05:31.481Z,0.82
2023-05-10T19:07:33.669Z,0.90
2023-05-10T19:09:35.552Z,0.70
2023-05-10T19:11:37.139Z,0.80
2023-05-10T19:13:38.652Z,0.90
2023-05-10T19:15:40.844Z,0.63
2023-05-10T19:19:45.942Z,0.80
2023-05-10T19:21:48.093Z,0.90
2023-05-10T19:23:49.799Z,0.77
2023-05-10T19:25:51.842Z,0.80
2023-05-10T19:27:53.424Z,0.80
2023-05-10T19:29:55.742Z,0.95
2023-05-10T19:31:58.090Z,0.77
2023-05-10T19:34:00.857Z,0.90
2023-05-10T19:36:04.171Z,0.80
2023-05-10T19:38:05.872Z,0.95
2023-05-10T19:40:09.593Z,1.13
2023-05-10T19:42:11.586Z,1.00
2023-05-10T19:44:13.452Z,1.45
2023-05-10T19:46:17.117Z,1.10
2023-05-10T19:48:19.490Z,1.75
2023-05-10T19:50:21.015Z,1.13
2023-05-10T19:52:22.680Z,1.23
2023-05-10T19:54:24.331Z,1.23
2023-05-10T19:56:26.929Z,1.30
2023-05-10T19:58:29.776Z,1.38
2023-05-10T20:00:31.946Z,1.40
2023-05-10T20:02:33.794Z,1.25
2023-05-10T20:04:35.751Z,1.50
2023-05-10T20:06:37.335Z,1.50
2023-05-10T20:08:39.040Z,1.40
2023-05-10T20:10:40.530Z,1.40
2023-05-10T20:12:50.806Z,1.08
2023-05-10T20:14:52.361Z,1.20
2023-05-10T20:16:53.904Z,1.20
2023-05-10T20:18:55.563Z,1.20
2023-05-10T20:20:59.480Z,1.25
2023-05-10T20:23:01.324Z,1.52
2023-05-10T20:25:03.071Z,1.83
2023-05-10T20:27:04.806Z,1.20
2023-05-10T20:29:06.984Z,1.20
2023-05-10T20:31:10.170Z,1.02
2023-05-10T20:33:11.849Z,1.30
2023-05-10T20:35:13.577Z,1.10
2023-05-10T20:37:17.640Z,1.40
2023-05-10T20:39:19.141Z,1.48
2023-05-10T20:41:20.866Z,1.20
2023-05-10T20:43:22.419Z,1.10
2023-05-10T20:45:24.152Z,1.40
2023-05-10T20:47:26.353Z,1.35
2023-05-10T20:49:28.135Z,1.30
2023-05-10T20:51:30.610Z,1.25
2023-05-10T20:53:32.230Z,1.20
2023-05-10T20:55:33.793Z,1.13
2023-05-10T20:57:35.515Z,1.77
2023-05-10T20:59:37.257Z,1.10
2023-05-10T21:01:38.896Z,1.10
2023-05-10T21:03:41.047Z,1.20
2023-05-10T21:05:42.613Z,1.20
2023-05-10T21:07:44.155Z,1.50
2023-05-10T21:09:45.785Z,1.38
2023-05-10T21:11:47.334Z,1.20
2023-05-10T21:13:48.843Z,1.40
2023-05-10T21:15:50.812Z,1.80
2023-05-10T21:17:53.857Z,1.60
2023-05-10T21:19:55.703Z,1.60
2023-05-10T21:21:58.909Z,1.20
2023-05-10T21:24:00.605Z,1.25
2023-05-10T21:26:03.215Z,1.50
2023-05-10T21:28:05.288Z,2.55
2023-05-10T21:30:07.721Z,1.30
2023-05-10T21:34:11.346Z,1.20
2023-05-10T21:36:13.180Z,1.38
2023-05-10T21:38:15.819Z,1.20
2023-05-10T21:40:17.865Z,1.50
2023-05-10T21:42:19.856Z,1.52
2023-05-10T21:44:27.659Z,1.40
2023-05-10T21:46:29.561Z,1.70
2023-05-10T21:48:31.187Z,1.50
2023-05-10T21:50:32.690Z,1.52
2023-05-10T21:52:34.216Z,1.70
2023-05-10T21:54:37.191Z,1.50
2023-05-10T21:56:38.729Z,1.88
2023-05-10T21:58:40.712Z,1.50
2023-05-10T22:00:42.313Z,1.52
2023-05-10T22:02:43.980Z,1.95
2023-05-10T22:04:45.775Z,1.58
2023-05-10T22:06:48.934Z,1.35
2023-05-10T22:08:51.014Z,1.67
2023-05-10T22:10:52.792Z,1.30
2023-05-10T22:12:54.382Z,1.50
2023-05-10T22:15:09.496Z,1.45
2023-05-10T22:17:12.038Z,1.35
2023-05-10T22:19:13.594Z,1.10
2023-05-10T22:21:15.184Z,1.38
2023-05-10T22:23:16.720Z,1.38
2023-05-10T22:25:18.509Z,1.38
2023-05-10T22:27:20.040Z,1.45
2023-05-10T22:29:22.513Z,1.13
2023-05-10T22:31:24.113Z,1.20
2023-05-10T22:33:25.641Z,1.75
2023-05-10T22:35:27.555Z,1.88
2023-05-10T22:37:29.108Z,2.42
2023-05-10T22:39:30.650Z,2.45
2023-05-10T22:41:33.266Z,1.88
2023-05-10T22:43:34.767Z,2.15
2023-05-10T22:45:36.366Z,1.75
2023-05-10T22:47:38.063Z,1.80
2023-05-10T22:49:39.594Z,1.77
2023-05-10T22:51:41.173Z,1.92
2023-05-10T22:53:43.344Z,1.90
2023-05-10T22:55:45.457Z,1.73
2023-05-10T22:57:47.299Z,1.85
2023-05-10T22:59:49.121Z,1.65
2023-05-10T23:01:50.991Z,1.85
2023-05-10T23:03:52.679Z,1.08
2023-05-10T23:05:54.282Z,1.50
2023-05-10T23:07:55.812Z,1.40
2023-05-10T23:09:57.333Z,1.20
2023-05-10T23:11:58.883Z,1.00
2023-05-10T23:14:00.446Z,1.13
2023-05-10T23:16:06.533Z,1.20
2023-05-10T23:18:09.508Z,1.33
2023-05-10T23:20:11.902Z,1.08
2023-05-10T23:22:13.871Z,1.33
2023-05-10T23:24:15.493Z,1.30
2023-05-10T23:26:17.033Z,1.30
2023-05-10T23:28:19.187Z,1.60
2023-05-10T23:30:20.931Z,1.25
2023-05-10T23:32:22.848Z,1.20
2023-05-10T23:34:24.521Z,1.35
2023-05-10T23:36:26.280Z,1.40
2023-05-10T23:38:28.011Z,1.40
2023-05-10T23:40:30.035Z,1.20
2023-05-10T23:42:32.696Z,1.48
2023-05-10T23:44:34.196Z,1.20
2023-05-10T23:46:36.015Z,1.42
2023-05-10T23:48:37.543Z,1.15
2023-05-10T23:50:44.364Z,1.17
2023-05-10T23:52:45.924Z,1.30
2023-05-10T23:54:47.509Z,1.52
2023-05-10T23:56:51.711Z,1.30
2023-05-10T23:58:53.209Z,1.40
